Time;durP1;ratioP1;P1;durP2;ratioP2;P2;SDS_P1;SDS_P2;PMS_P1;PMS_P2;Temp;Humidity;BMP_temperature;BMP_pressure;BME280_temperature;BME280_humidity;BME280_pressure;Samples;Min_cycle;Max_cycle;Signal;HPM_P1;HPM_P2
2021/09/06 00:01:39;;;;;;;;;;;;;;;-142.75;91.96;77637.34;4989082;28;19967;-75
2021/09/06 00:04:04;;;;;;;;;;;;;;;-142.75;91.64;77637.34;4988509;28;19959;-75
2021/09/06 00:06:30;;;;;;;;;;;;;;;-142.75;91.08;77645.22;4988999;28;19914;-75
2021/09/06 00:08:55;;;;;;;;;;;;;;;-142.75;90.59;77645.22;4989737;28;19960;-75
2021/09/06 00:11:20;;;;;;;;;;;;;;;-142.75;91.26;77645.22;4988885;28;19914;-75
2021/09/06 00:13:45;;;;;;;;;;;;;;;-142.75;91.31;77657.03;4989424;28;19914;-75
2021/09/06 00:16:11;;;;;;;;;;;;;;;-142.75;91.58;77668.84;4989080;28;21605;-75
2021/09/06 00:18:36;;;;;;;;;;;;;;;-142.75;92.38;77682.63;4989109;28;20469;-74
2021/09/06 00:21:03;;;;;;;;;;;;;;;-142.75;93.16;77680.66;4971720;28;19913;-75
2021/09/06 00:23:28;;;;;;;;;;;;;;;-142.75;93.79;77688.53;4989363;28;19957;-75
2021/09/06 00:25:54;;;;;;;;;;;;;;;-142.75;94.12;77674.75;4989158;28;19964;-75
2021/09/06 00:28:19;;;;;;;;;;;;;;;-142.75;95.30;77674.75;4989086;28;20344;-75
2021/09/06 00:30:44;;;;;;;;;;;;;;;-142.75;97.61;77672.78;4971218;28;19913;-74
2021/09/06 00:33:10;;;;;;;;;;;;;;;-142.75;98.60;77657.03;4988870;28;19921;-75
2021/09/06 00:35:35;;;;;;;;;;;;;;;-142.75;97.81;77651.13;4988959;28;19920;-75
2021/09/06 00:38:00;;;;;;;;;;;;;;;-142.75;97.15;77631.44;4988754;28;19956;-75
2021/09/06 00:40:26;;;;;;;;;;;;;;;-142.75;95.52;77649.16;4988788;28;20016;-75
2021/09/06 00:42:51;;;;;;;;;;;;;;;-142.75;94.68;77657.03;4988993;28;20333;-74
2021/09/06 00:45:16;;;;;;;;;;;;;;;-142.75;93.84;77662.94;4971110;28;19914;-75
2021/09/06 00:47:42;;;;;;;;;;;;;;;-142.75;93.10;77668.84;4971271;28;19913;-74
2021/09/06 00:50:09;;;;;;;;;;;;;;;-142.75;92.58;77668.84;4988247;28;19914;-75
2021/09/06 00:52:36;;;;;;;;;;;;;;;-142.75;92.33;77684.59;4971047;28;19992;-75
2021/09/06 00:55:01;;;;;;;;;;;;;;;-142.75;92.68;77702.31;4988377;28;19991;-76
2021/09/06 00:57:26;;;;;;;;;;;;;;;-142.75;92.20;77698.38;4971181;28;19945;-75
2021/09/06 00:59:52;;;;;;;;;;;;;;;-142.75;92.02;77712.16;4988206;28;20479;-74
2021/09/06 01:02:17;;;;;;;;;;;;;;;-142.75;92.53;77718.06;4971066;28;20024;-75
2021/09/06 01:04:42;;;;;;;;;;;;;;;-142.75;92.77;77718.06;4970788;28;20055;-75
2021/09/06 01:07:07;;;;;;;;;;;;;;;-142.75;92.50;77722.00;4986708;28;19967;-74
2021/09/06 01:09:33;;;;;;;;;;;;;;;-142.75;92.38;77727.94;4971358;28;20007;-75
2021/09/06 01:11:58;;;;;;;;;;;;;;;-142.75;92.66;77733.84;4970623;28;19913;-74
2021/09/06 01:14:23;;;;;;;;;;;;;;;-142.75;92.59;77739.75;4989815;28;20360;-75
2021/09/06 01:16:48;;;;;;;;;;;;;;;-142.75;92.54;77739.75;4991639;28;19921;-74
2021/09/06 01:19:13;;;;;;;;;;;;;;;-142.75;92.60;77745.66;4991619;28;19917;-75
2021/09/06 01:21:39;;;;;;;;;;;;;;;-142.75;94.41;77739.75;4991385;28;20072;-75
2021/09/06 01:24:04;;;;;;;;;;;;;;;-142.75;96.62;77735.81;4972638;28;19920;-74
2021/09/06 01:26:29;;;;;;;;;;;;;;;-142.75;98.29;77735.81;4991452;28;20453;-74
2021/09/06 01:28:54;;;;;;;;;;;;;;;-142.75;99.88;77722.00;4991562;28;19959;-74
2021/09/06 01:31:22;;;;;;;;;;;;;;;-142.75;100.00;77714.13;4991147;28;19960;-75
2021/09/06 01:33:47;;;;;;;;;;;;;;;-142.75;100.00;77712.16;4991337;28;20291;-74
2021/09/06 01:36:13;;;;;;;;;;;;;;;-142.75;99.27;77723.97;4991463;28;19914;-75
2021/09/06 01:38:38;;;;;;;;;;;;;;;-142.75;97.99;77735.81;4974103;28;19924;-75
2021/09/06 01:41:03;;;;;;;;;;;;;;;-142.75;97.10;77749.59;4991217;28;20428;-75
2021/09/06 01:43:28;;;;;;;;;;;;;;;-142.75;96.18;77755.50;4991353;28;19921;-74
2021/09/06 01:45:53;;;;;;;;;;;;;;;-142.75;95.64;77759.44;4991382;28;19945;-74
2021/09/06 01:48:19;;;;;;;;;;;;;;;-142.75;95.21;77763.38;4991112;28;19914;-75
2021/09/06 01:50:44;;;;;;;;;;;;;;;-142.75;95.16;77759.44;4991091;28;20322;-74
2021/09/06 01:53:09;;;;;;;;;;;;;;;-142.75;95.67;77753.53;4991192;28;19920;-75
2021/09/06 01:55:34;;;;;;;;;;;;;;;-142.75;96.72;77739.75;4991017;28;20325;-74
2021/09/06 01:57:59;;;;;;;;;;;;;;;-142.75;96.96;77735.81;4973743;28;19967;-74
2021/09/06 02:00:24;;;;;;;;;;;;;;;-142.75;96.77;77739.75;4973328;28;19971;-75
2021/09/06 02:02:50;;;;;;;;;;;;;;;-142.75;96.24;77751.56;4991104;28;19913;-74
2021/09/06 02:05:15;;;;;;;;;;;;;;;-142.75;96.62;77743.69;4990811;28;20302;-74
2021/09/06 02:07:40;;;;;;;;;;;;;;;-142.75;96.17;77755.50;4990949;28;19917;-74
2021/09/06 02:10:06;;;;;;;;;;;;;;;-142.75;95.50;77747.63;4991093;28;20362;-74
2021/09/06 02:12:31;;;;;;;;;;;;;;;-142.75;95.70;77743.69;4973392;28;20015;-73
2021/09/06 02:14:56;;;;;;;;;;;;;;;-142.75;96.74;77747.63;4990881;28;19913;-74
2021/09/06 02:17:21;;;;;;;;;;;;;;;-142.75;97.44;77747.63;4990738;28;20365;-74
2021/09/06 02:19:46;;;;;;;;;;;;;;;-142.75;97.50;77739.75;4972941;28;19967;-73
2021/09/06 02:22:12;;;;;;;;;;;;;;;-142.75;96.67;77759.44;4989197;28;19918;-74
2021/09/06 02:24:37;;;;;;;;;;;;;;;-142.75;95.97;77759.44;4990715;28;19920;-74
2021/09/06 02:27:02;;;;;;;;;;;;;;;-142.75;95.45;77775.19;4989951;28;19949;-74
2021/09/06 02:29:27;;;;;;;;;;;;;;;-142.75;94.84;77781.09;4990618;28;20384;-74
2021/09/06 02:31:52;;;;;;;;;;;;;;;-142.75;94.69;77783.06;4972732;28;20434;-74
2021/09/06 02:34:18;;;;;;;;;;;;;;;-142.75;95.83;77787.00;4990579;28;19917;-74
2021/09/06 02:36:43;;;;;;;;;;;;;;;-142.75;97.06;77785.03;4990466;28;20284;-74
2021/09/06 02:39:08;;;;;;;;;;;;;;;-142.75;97.89;77781.09;4991006;28;20039;-74
2021/09/06 02:41:33;;;;;;;;;;;;;;;-142.75;99.27;77783.06;4972728;28;19914;-74
2021/09/06 02:43:59;;;;;;;;;;;;;;;-142.75;98.91;77779.13;4990418;28;20375;-74
2021/09/06 02:46:25;;;;;;;;;;;;;;;-142.75;98.47;77787.00;4972677;28;19920;-74
2021/09/06 02:48:50;;;;;;;;;;;;;;;-142.75;97.69;77790.94;4990460;28;20001;-73
2021/09/06 02:51:15;;;;;;;;;;;;;;;-142.75;97.34;77800.78;4989866;28;19920;-74
2021/09/06 02:53:40;;;;;;;;;;;;;;;-142.75;97.28;77806.69;4990337;28;20341;-73
2021/09/06 02:56:05;;;;;;;;;;;;;;;-142.75;97.33;77810.63;4989966;28;19913;-74
2021/09/06 02:58:31;;;;;;;;;;;;;;;-142.75;97.32;77812.59;4972740;28;19918;-74
2021/09/06 03:00:56;;;;;;;;;;;;;;;-142.75;97.51;77820.47;4989721;28;20044;-74
2021/09/06 03:03:21;;;;;;;;;;;;;;;-142.75;97.90;77820.47;4990181;28;20454;-74
2021/09/06 03:05:46;;;;;;;;;;;;;;;-142.75;97.74;77816.53;4985773;22;19924;-79
2021/09/06 03:08:12;;;;;;;;;;;;;;;-142.75;97.27;77814.56;4959844;28;19971;-79
2021/09/06 03:10:37;;;;;;;;;;;;;;;-142.75;96.76;77818.50;4959200;28;19915;-79
2021/09/06 03:13:02;;;;;;;;;;;;;;;-142.75;96.42;77822.44;4958960;28;19914;-80
2021/09/06 03:15:27;;;;;;;;;;;;;;;-142.75;96.29;77824.41;4965049;28;19922;-79
2021/09/06 03:17:53;;;;;;;;;;;;;;;-142.75;96.54;77834.25;4980769;28;19917;-79
2021/09/06 03:20:18;;;;;;;;;;;;;;;-142.75;96.99;77834.25;4969127;28;19936;-79
2021/09/06 03:22:43;;;;;;;;;;;;;;;-142.75;97.26;77832.28;4968044;28;19918;-79
2021/09/06 03:25:08;;;;;;;;;;;;;;;-142.75;97.42;77834.25;4995661;28;19914;-78
2021/09/06 03:27:34;;;;;;;;;;;;;;;-142.75;97.40;77828.34;4984427;28;20013;-79
2021/09/06 03:29:59;;;;;;;;;;;;;;;-142.75;97.43;77840.16;4980286;28;20283;-79
2021/09/06 03:32:24;;;;;;;;;;;;;;;-142.75;97.81;77842.13;4978232;28;19921;-78
2021/09/06 03:34:49;;;;;;;;;;;;;;;-142.75;98.11;77842.13;4977516;28;19918;-79
2021/09/06 03:37:14;;;;;;;;;;;;;;;-142.75;98.07;77844.09;4975367;28;19914;-78
2021/09/06 03:39:40;;;;;;;;;;;;;;;-142.75;98.07;77846.06;5026703;28;19925;-78
2021/09/06 03:42:05;;;;;;;;;;;;;;;-142.75;97.95;77838.19;4958964;28;19921;-78
2021/09/06 03:44:30;;;;;;;;;;;;;;;-142.75;98.20;77846.06;4980063;28;19918;-80
2021/09/06 03:46:56;;;;;;;;;;;;;;;-142.75;98.47;77853.94;5012626;28;19914;-78
2021/09/06 03:49:21;;;;;;;;;;;;;;;-142.75;98.30;77850.00;4985190;28;19914;-78
2021/09/06 03:51:46;;;;;;;;;;;;;;;-142.75;98.47;77850.00;4978179;28;19918;-78
2021/09/06 03:54:12;;;;;;;;;;;;;;;-142.75;98.83;77850.00;4996111;28;20434;-79
2021/09/06 03:56:37;;;;;;;;;;;;;;;-142.75;98.26;77859.84;4965341;28;20323;-78
2021/09/06 03:59:02;;;;;;;;;;;;;;;-142.75;98.02;77873.63;5012216;28;20528;-79
2021/09/06 04:01:27;;;;;;;;;;;;;;;-142.75;98.30;77877.56;5008615;28;19971;-80
2021/09/06 04:03:53;;;;;;;;;;;;;;;-142.75;98.75;77887.41;4965107;28;20418;-78
2021/09/06 04:06:18;;;;;;;;;;;;;;;-142.75;99.34;77889.38;4982955;28;19956;-79
2021/09/06 04:08:43;;;;;;;;;;;;;;;-142.75;99.68;77891.34;4982774;28;19914;-78
2021/09/06 04:11:09;;;;;;;;;;;;;;;-142.75;100.00;77885.44;4964999;28;19918;-80
2021/09/06 04:13:34;;;;;;;;;;;;;;;-142.75;100.00;77881.50;4981999;28;19914;-79
2021/09/06 04:15:59;;;;;;;;;;;;;;;-142.75;99.50;77881.50;4983896;28;19914;-78
2021/09/06 04:18:26;;;;;;;;;;;;;;;-142.75;99.08;77891.34;4983676;28;19971;-79
2021/09/06 04:20:51;;;;;;;;;;;;;;;-142.75;98.85;77899.22;4983508;28;19997;-78
2021/09/06 04:23:17;;;;;;;;;;;;;;;-142.75;98.38;77899.22;4967029;28;19960;-79
2021/09/06 04:25:42;;;;;;;;;;;;;;;-142.75;98.32;77893.31;5005801;28;19939;-78
2021/09/06 04:28:07;;;;;;;;;;;;;;;-142.75;98.44;77901.19;4983698;28;19932;-78
2021/09/06 04:30:32;;;;;;;;;;;;;;;-142.75;98.82;77905.13;4967091;28;19917;-77
2021/09/06 04:32:57;;;;;;;;;;;;;;;-142.75;98.90;77903.16;4984429;28;19922;-78
2021/09/06 04:35:23;;;;;;;;;;;;;;;-142.75;98.91;77901.19;4988065;28;20240;-78
2021/09/06 04:37:48;;;;;;;;;;;;;;;-142.75;98.88;77903.16;4969068;28;19922;-78
2021/09/06 04:40:13;;;;;;;;;;;;;;;-142.75;98.94;77905.13;4992265;28;20383;-79
2021/09/06 04:42:38;;;;;;;;;;;;;;;-142.75;100.00;77907.09;4982518;28;19917;-80
2021/09/06 04:45:04;;;;;;;;;;;;;;;-142.75;100.00;77913.03;4972073;28;19913;-79
2021/09/06 04:47:29;;;;;;;;;;;;;;;-142.75;100.00;77913.03;4970332;28;19936;-79
2021/09/06 04:49:54;;;;;;;;;;;;;;;-142.75;100.00;77924.84;4985276;28;19920;-79
2021/09/06 04:52:20;;;;;;;;;;;;;;;-142.75;99.82;77924.84;4987456;28;19925;-79
2021/09/06 04:54:45;;;;;;;;;;;;;;;-142.75;99.39;77924.84;4967423;28;19949;-78
2021/09/06 04:57:10;;;;;;;;;;;;;;;-142.75;99.03;77934.69;4967928;28;19971;-79
2021/09/06 04:59:35;;;;;;;;;;;;;;;-142.75;98.67;77940.59;4987592;28;19921;-78
2021/09/06 05:02:00;;;;;;;;;;;;;;;-142.75;98.36;77946.50;4989526;28;19928;-79
2021/09/06 05:04:26;;;;;;;;;;;;;;;-142.75;98.53;77954.38;4981365;28;20337;-78
2021/09/06 05:06:51;;;;;;;;;;;;;;;-142.75;98.79;77952.41;4968407;28;20310;-78
2021/09/06 05:09:16;;;;;;;;;;;;;;;-142.75;99.30;77950.44;4985334;28;19936;-78
2021/09/06 05:11:41;;;;;;;;;;;;;;;-142.75;99.77;77956.34;5003056;28;19972;-79
2021/09/06 05:14:06;;;;;;;;;;;;;;;-142.75;100.00;77952.41;4982358;28;19914;-78
2021/09/06 05:16:31;;;;;;;;;;;;;;;-142.75;100.00;77954.38;4988257;28;20412;-78
2021/09/06 05:18:57;;;;;;;;;;;;;;;-142.75;100.00;77952.41;4966532;28;19921;-79
2021/09/06 05:21:22;;;;;;;;;;;;;;;-142.75;100.00;77952.41;4984595;28;20299;-79
2021/09/06 05:23:47;;;;;;;;;;;;;;;-142.75;100.00;77952.41;5005902;28;19924;-79
2021/09/06 05:26:12;;;;;;;;;;;;;;;-142.75;100.00;77948.47;4962493;28;19960;-79
2021/09/06 05:28:38;;;;;;;;;;;;;;;-142.75;100.00;77944.53;4992799;28;20008;-81
2021/09/06 05:31:05;;;;;;;;;;;;;;;-142.75;100.00;77944.53;4999130;28;19926;-79
2021/09/06 05:33:31;;;;;;;;;;;;;;;-142.75;100.00;77928.78;4980714;28;19913;-79
2021/09/06 05:35:56;;;;;;;;;;;;;;;-142.75;100.00;77928.78;4984801;28;19914;-81
2021/09/06 05:38:21;;;;;;;;;;;;;;;-142.75;100.00;77918.94;4984946;28;19914;-78
2021/09/06 05:40:47;;;;;;;;;;;;;;;-142.75;100.00;77905.13;4979792;28;19922;-81
2021/09/06 05:43:12;;;;;;;;;;;;;;;-142.75;100.00;77877.56;4978718;28;20320;-79
2021/09/06 05:45:37;;;;;;;;;;;;;;;-142.75;100.00;77848.03;4983038;28;20437;-80
2021/09/06 05:48:03;;;;;;;;;;;;;;;-142.75;100.00;77816.53;4960576;28;20008;-79
2021/09/06 05:50:29;;;;;;;;;;;;;;;-142.75;100.00;77785.03;4985223;28;19914;-79
2021/09/06 05:52:54;;;;;;;;;;;;;;;-142.75;100.00;77749.59;4966642;28;19918;-79
2021/09/06 05:55:19;;;;;;;;;;;;;;;-142.75;100.00;77708.22;4985713;28;19922;-77
2021/09/06 05:57:44;;;;;;;;;;;;;;;-142.75;100.00;77653.09;4977976;28;20302;-78
2021/09/06 06:00:10;;;;;;;;;;;;;;;-142.75;98.50;77609.78;5008296;28;19937;-79
2021/09/06 06:02:35;;;;;;;;;;;;;;;-142.75;96.50;77554.66;4966813;28;20315;-80
2021/09/06 06:05:01;;;;;;;;;;;;;;;-142.75;93.36;77491.66;4981501;28;19914;-78
2021/09/06 06:07:26;;;;;;;;;;;;;;;-142.75;88.96;77450.28;4966539;28;19963;-79
2021/09/06 06:09:52;;;;;;;;;;;;;;;-142.75;86.41;77432.56;4983410;28;20368;-78
2021/09/06 06:12:18;;;;;;;;;;;;;;;-142.75;85.11;77381.38;4985209;28;19917;-78
2021/09/06 06:14:43;;;;;;;;;;;;;;;-142.75;83.74;77342.00;4963205;28;19921;-77
2021/09/06 06:17:08;;;;;;;;;;;;;;;-142.75;83.10;77302.63;4995503;28;19915;-77
2021/09/06 06:19:33;;;;;;;;;;;;;;;-142.75;81.90;77251.44;4976183;28;19914;-79
2021/09/06 06:21:58;;;;;;;;;;;;;;;-142.75;79.50;77200.25;4987902;28;19914;-78
2021/09/06 06:24:24;;;;;;;;;;;;;;;-142.75;75.58;77145.13;5016123;28;19914;-79
2021/09/06 06:26:49;;;;;;;;;;;;;;;-142.75;74.84;77153.00;4986240;28;19913;-78
2021/09/06 06:29:14;;;;;;;;;;;;;;;-142.75;73.62;77127.41;4975537;28;20040;-78
2021/09/06 06:31:39;;;;;;;;;;;;;;;-142.75;73.32;77145.13;4971586;28;19926;-77
2021/09/06 06:34:04;;;;;;;;;;;;;;;-142.75;74.26;77160.88;4958926;28;19957;-79
2021/09/06 06:36:30;;;;;;;;;;;;;;;-142.75;76.79;77190.41;4972023;28;19914;-77
2021/09/06 06:38:55;;;;;;;;;;;;;;;-142.75;77.32;77184.50;4978814;28;19914;-78
2021/09/06 06:41:20;;;;;;;;;;;;;;;-142.75;77.01;77202.22;5000982;28;19959;-78
2021/09/06 06:43:45;;;;;;;;;;;;;;;-142.75;77.21;77212.06;4970865;28;19948;-77
2021/09/06 06:46:10;;;;;;;;;;;;;;;-142.75;76.81;77202.22;4975384;28;20314;-77
2021/09/06 06:48:36;;;;;;;;;;;;;;;-142.75;77.95;77198.28;4990593;28;20277;-78
2021/09/06 06:51:01;;;;;;;;;;;;;;;-142.75;76.07;77141.19;4974042;28;19918;-78
2021/09/06 06:53:26;;;;;;;;;;;;;;;-142.75;74.14;77103.78;4973037;28;19914;-79
2021/09/06 06:55:51;;;;;;;;;;;;;;;-142.75;73.76;77105.75;5033257;28;19918;-77
2021/09/06 06:58:17;;;;;;;;;;;;;;;-142.75;73.83;77123.47;4968197;28;19965;-77
2021/09/06 07:00:42;;;;;;;;;;;;;;;-142.75;72.17;77019.13;4960919;28;19922;-79
2021/09/06 07:03:07;;;;;;;;;;;;;;;-142.75;68.81;77005.34;4990825;28;20600;-78
2021/09/06 07:05:32;;;;;;;;;;;;;;;-142.75;69.29;76979.75;4977207;28;19914;-78
2021/09/06 07:07:57;;;;;;;;;;;;;;;-142.75;67.23;76967.94;4978119;28;19922;-78
2021/09/06 07:10:23;;;;;;;;;;;;;;;-142.75;67.17;76936.44;4977184;28;20021;-79
2021/09/06 07:12:48;;;;;;;;;;;;;;;-142.75;66.05;76916.75;4973190;28;19933;-78
2021/09/06 07:15:13;;;;;;;;;;;;;;;-142.75;65.19;76889.19;4980779;28;20008;-78
2021/09/06 07:17:38;;;;;;;;;;;;;;;-142.75;66.06;76889.19;4973331;28;19914;-79
2021/09/06 07:20:04;;;;;;;;;;;;;;;-142.75;64.32;76867.53;4977045;28;19913;-78
2021/09/06 07:22:29;;;;;;;;;;;;;;;-142.75;64.90;76810.44;4963524;28;19953;-79
2021/09/06 07:24:54;;;;;;;;;;;;;;;-142.75;63.42;76836.03;5036482;28;20375;-80
2021/09/06 07:27:20;;;;;;;;;;;;;;;-142.75;65.90;76928.56;5041011;28;19957;-79
2021/09/06 07:29:45;;;;;;;;;;;;;;;-142.75;65.96;76838.00;4992505;28;19914;-79
2021/09/06 07:32:10;;;;;;;;;;;;;;;-142.75;66.38;76879.34;4993522;28;19922;-78
2021/09/06 07:34:36;;;;;;;;;;;;;;;-142.75;65.50;76836.03;4990325;28;19914;-78
2021/09/06 07:37:02;;;;;;;;;;;;;;;-142.75;63.08;76743.53;4977086;28;19955;-79
2021/09/06 07:39:28;;;;;;;;;;;;;;;-142.75;59.84;76641.16;4976256;28;20036;-78
2021/09/06 07:41:53;;;;;;;;;;;;;;;-142.75;59.29;76609.66;4967738;28;20391;-78
2021/09/06 07:44:18;;;;;;;;;;;;;;;-142.75;58.81;76611.63;4981006;28;19914;-78
2021/09/06 07:46:43;;;;;;;;;;;;;;;-142.75;58.75;76607.69;5036243;28;19920;-78
2021/09/06 07:49:09;;;;;;;;;;;;;;;-142.75;57.82;76546.66;4993236;28;19928;-78
2021/09/06 07:51:34;;;;;;;;;;;;;;;-142.75;57.54;76479.75;4960690;28;19918;-79
2021/09/06 07:54:01;;;;;;;;;;;;;;;-142.75;58.24;76586.03;4981716;28;19924;-77
2021/09/06 07:56:26;;;;;;;;;;;;;;;-142.75;56.75;76562.41;4985304;28;19960;-78
2021/09/06 07:58:51;;;;;;;;;;;;;;;-142.75;56.88;76554.53;5037020;28;20000;-79
2021/09/06 08:01:17;;;;;;;;;;;;;;;-142.75;54.13;76432.50;4997588;28;19914;-79
2021/09/06 08:03:42;;;;;;;;;;;;;;;-142.75;54.81;76505.34;4980783;28;20026;-80
2021/09/06 08:06:07;;;;;;;;;;;;;;;-142.75;54.18;76448.25;4987709;28;20413;-79
2021/09/06 08:08:32;;;;;;;;;;;;;;;-142.75;54.29;76473.84;5032868;28;19915;-79
2021/09/06 08:10:57;;;;;;;;;;;;;;;-142.75;55.85;76519.13;4985062;28;19934;-79
2021/09/06 08:13:23;;;;;;;;;;;;;;;-142.75;54.32;76393.13;4991357;28;19913;-79
2021/09/06 08:15:48;;;;;;;;;;;;;;;-142.75;52.13;76385.25;4989430;28;19952;-78
2021/09/06 08:18:13;;;;;;;;;;;;;;;-142.75;53.61;76422.66;4991132;28;20340;-78
2021/09/06 08:20:39;;;;;;;;;;;;;;;-142.75;52.60;76367.53;4990622;28;19913;-78
2021/09/06 08:23:04;;;;;;;;;;;;;;;-142.75;53.54;76483.69;4973543;28;20446;-78
2021/09/06 08:25:30;;;;;;;;;;;;;;;-142.75;55.57;76460.06;4990436;28;20571;-79
2021/09/06 08:27:55;;;;;;;;;;;;;;;-142.75;54.80;76381.31;4991684;28;19964;-79
2021/09/06 08:30:20;;;;;;;;;;;;;;;-142.75;51.61;76271.09;4990904;28;19914;-78
2021/09/06 08:32:45;;;;;;;;;;;;;;;-142.75;50.38;76239.59;4990887;28;19950;-78
2021/09/06 08:35:11;;;;;;;;;;;;;;;-142.75;51.30;76286.84;4984997;28;19938;-79
2021/09/06 08:37:37;;;;;;;;;;;;;;;-142.75;52.77;76369.50;4971823;28;19917;-78
2021/09/06 08:40:03;;;;;;;;;;;;;;;-142.75;53.20;76448.25;4976955;28;19914;-78
2021/09/06 08:42:28;;;;;;;;;;;;;;;-142.75;50.52;76208.09;4985005;28;20371;-78
2021/09/06 08:44:53;;;;;;;;;;;;;;;-142.75;49.96;76184.50;4986170;28;19975;-79
2021/09/06 08:47:19;;;;;;;;;;;;;;;-142.75;47.56;76121.50;4989127;28;19918;-79
2021/09/06 08:49:45;;;;;;;;;;;;;;;-142.75;48.97;76042.78;4971644;28;20331;-80
2021/09/06 08:52:11;;;;;;;;;;;;;;;-142.75;46.36;75879.41;4962657;28;20052;-80
2021/09/06 08:54:36;;;;;;;;;;;;;;;-142.75;42.15;75660.97;4983170;28;19914;-80
2021/09/06 08:57:01;;;;;;;;;;;;;;;-142.75;40.01;75525.16;4988973;28;20000;-82
2021/09/06 08:59:27;;;;;;;;;;;;;;;-142.75;37.94;75403.16;4960978;28;19925;-81
2021/09/06 09:01:52;;;;;;;;;;;;;;;-142.75;36.20;75371.66;4969611;28;19963;-80
2021/09/06 09:04:18;;;;;;;;;;;;;;;-142.75;35.80;75393.31;4971501;28;19913;-82
2021/09/06 09:06:46;;;;;;;;;;;;;;;-142.75;37.72;75513.38;4963107;28;19971;-81
2021/09/06 09:09:11;;;;;;;;;;;;;;;-142.75;38.65;75609.78;4962655;28;20728;-80
2021/09/06 09:11:36;;;;;;;;;;;;;;;-142.75;38.99;75592.09;5025482;28;20009;-80
2021/09/06 09:14:12;;;;;;;;;;;;;;;-142.75;36.59;75564.53;4960776;28;20001;-80
2021/09/06 09:16:37;;;;;;;;;;;;;;;-142.75;39.74;75751.50;4978435;28;20354;-79
2021/09/06 09:19:07;;;;;;;;;;;;;;;-142.75;40.65;75806.59;4952806;28;19914;-80
2021/09/06 09:21:32;;;;;;;;;;;;;;;-142.75;41.49;75741.66;4952380;28;19964;-79
2021/09/06 09:24:01;;;;;;;;;;;;;;;-142.75;40.00;75635.38;4970237;28;19954;-79
2021/09/06 09:26:28;;;;;;;;;;;;;;;-142.75;38.48;75696.38;5001665;28;19914;-79
2021/09/06 09:28:53;;;;;;;;;;;;;;;-142.75;40.60;75718.03;4971705;28;19933;-78
2021/09/06 09:31:20;;;;;;;;;;;;;;;-142.75;41.22;75668.84;4973853;28;19926;-80
2021/09/06 09:33:46;;;;;;;;;;;;;;;-142.75;38.32;75511.41;4991086;28;19921;-79
2021/09/06 09:36:12;;;;;;;;;;;;;;;-142.75;37.12;75515.31;4973814;28;19913;-79
2021/09/06 09:38:37;;;;;;;;;;;;;;;-142.75;36.76;75468.09;5001542;23;19975;-77
2021/09/06 09:41:10;;;;;;;;;;;;;;;-142.75;34.20;75424.81;4989468;28;20580;-77
2021/09/06 09:43:35;;;;;;;;;;;;;;;-142.75;36.03;75629.47;4991791;28;19914;-76
2021/09/06 09:46:03;;;;;;;;;;;;;;;-142.75;39.47;75836.13;4992304;28;19921;-76
2021/09/06 09:48:29;;;;;;;;;;;;;;;-142.75;39.87;75777.06;4992169;28;19953;-76
2021/09/06 09:50:54;;;;;;;;;;;;;;;-142.75;38.75;75755.44;4990570;28;19914;-76
2021/09/06 09:53:20;;;;;;;;;;;;;;;-142.75;39.47;75788.88;4992222;28;19952;-76
2021/09/06 09:55:45;;;;;;;;;;;;;;;-142.75;38.22;75700.31;4991844;28;20330;-75
2021/09/06 09:58:11;;;;;;;;;;;;;;;-142.75;39.08;75786.91;4991729;28;19918;-76
2021/09/06 10:00:37;;;;;;;;;;;;;;;-142.75;40.70;75983.72;4993374;28;20020;-76
2021/09/06 10:03:03;;;;;;;;;;;;;;;-142.75;39.17;75873.50;5011136;28;19913;-76
2021/09/06 10:05:29;;;;;;;;;;;;;;;-142.75;39.04;75936.50;4993815;28;19921;-76
2021/09/06 10:07:55;;;;;;;;;;;;;;;-142.75;42.00;75983.72;4993376;28;19939;-74
2021/09/06 10:10:21;;;;;;;;;;;;;;;-142.75;40.79;75905.00;4993555;28;20145;-76
2021/09/06 10:12:48;;;;;;;;;;;;;;;-142.75;39.49;75865.63;5011159;28;20072;-75
2021/09/06 10:15:13;;;;;;;;;;;;;;;-142.75;40.20;75922.72;4993595;28;19917;-76
2021/09/06 10:17:40;;;;;;;;;;;;;;;-142.75;41.53;75934.53;5011095;28;20383;-75
2021/09/06 10:20:11;;;;;;;;;;;;;;;-142.75;39.58;75875.47;4995910;28;19926;-75
2021/09/06 10:22:37;;;;;;;;;;;;;;;-142.75;41.18;75975.84;4990343;28;19920;-75
2021/09/06 10:25:07;;;;;;;;;;;;;;;-142.75;41.14;75910.91;4991559;28;20004;-74
2021/09/06 10:27:35;;;;;;;;;;;;;;;-142.75;37.40;75928.63;5002646;28;19970;-75
2021/09/06 10:30:05;;;;;;;;;;;;;;;-142.75;37.24;75781.00;4996677;28;19957;-74
2021/09/06 10:32:40;;;;;;;;;;;;;;;-142.75;37.76;75757.41;5000938;28;20295;-75
2021/09/06 10:35:06;;;;;;;;;;;;;;;-142.75;37.44;75808.56;5011013;28;19920;-75
2021/09/06 10:37:35;;;;;;;;;;;;;;;-142.75;38.11;75643.25;5010657;28;20399;-75
2021/09/06 10:40:00;;;;;;;;;;;;;;;-142.75;35.77;75521.22;5058304;28;19917;-76
2021/09/06 10:42:29;;;;;;;;;;;;;;;-142.75;34.44;75544.84;4990393;28;19920;-75
2021/09/06 10:44:57;;;;;;;;;;;;;;;-142.75;35.96;75643.25;4990156;28;19920;-75
2021/09/06 10:47:23;;;;;;;;;;;;;;;-142.75;35.10;75708.19;4993513;28;20306;-74
2021/09/06 10:49:48;;;;;;;;;;;;;;;-142.75;37.46;75796.75;4990925;28;19920;-75
2021/09/06 10:52:14;;;;;;;;;;;;;;;-142.75;37.79;75723.94;4990977;28;19921;-75
2021/09/06 10:54:40;;;;;;;;;;;;;;;-142.75;37.22;75720.00;4990955;28;19944;-75
2021/09/06 10:57:08;;;;;;;;;;;;;;;-142.75;36.90;75662.94;4989687;28;19914;-75
2021/09/06 10:59:33;;;;;;;;;;;;;;;-142.75;36.06;75625.53;4989471;28;20005;-75
2021/09/06 11:01:59;;;;;;;;;;;;;;;-142.75;36.13;75641.28;4990587;28;19948;-76
2021/09/06 11:04:27;;;;;;;;;;;;;;;-142.75;36.26;75645.22;4990833;28;20031;-76
2021/09/06 11:07:00;;;;;;;;;;;;;;;-142.75;35.84;75576.34;5009511;28;19913;-75
2021/09/06 11:09:26;;;;;;;;;;;;;;;-142.75;37.20;75806.59;4999597;28;19975;-74
2021/09/06 11:11:58;;;;;;;;;;;;;;;-142.75;36.64;75936.50;5004964;28;19940;-74
2021/09/06 11:14:30;;;;;;;;;;;;;;;-142.75;37.79;75975.84;4995694;28;20279;-75
2021/09/06 11:16:56;;;;;;;;;;;;;;;-142.75;39.20;75983.72;5010259;28;19914;-75
2021/09/06 11:19:21;;;;;;;;;;;;;;;-142.75;40.46;75891.22;5009952;28;19924;-75
2021/09/06 11:21:46;;;;;;;;;;;;;;;-142.75;38.40;75950.28;4989195;28;19913;-75
2021/09/06 11:24:12;;;;;;;;;;;;;;;-142.75;39.75;75979.78;5008083;28;19972;-75
2021/09/06 11:26:37;;;;;;;;;;;;;;;-142.75;40.20;76091.97;5010065;28;20476;-76
2021/09/06 11:29:02;;;;;;;;;;;;;;;-142.75;41.49;76145.13;4989319;28;19914;-74
2021/09/06 11:31:28;;;;;;;;;;;;;;;-142.75;43.53;76129.38;4990054;28;19935;-74
2021/09/06 11:34:00;;;;;;;;;;;;;;;-142.75;42.33;76147.09;4992453;28;19965;-74
2021/09/06 11:36:26;;;;;;;;;;;;;;;-142.75;43.00;76074.25;5009976;28;20378;-75
2021/09/06 11:38:51;;;;;;;;;;;;;;;-142.75;41.91;76030.97;5009539;28;19924;-75
2021/09/06 11:41:16;;;;;;;;;;;;;;;-142.75;40.63;76054.59;5009588;28;19940;-75
2021/09/06 11:43:42;;;;;;;;;;;;;;;-142.75;42.89;76119.53;4991992;28;19913;-75
2021/09/06 11:46:07;;;;;;;;;;;;;;;-142.75;41.36;76121.50;4990327;28;21119;-75
2021/09/06 11:48:40;;;;;;;;;;;;;;;-142.75;42.15;76074.25;4989974;28;20012;-75
2021/09/06 11:51:05;;;;;;;;;;;;;;;-142.75;43.10;76044.75;4988613;28;19914;-76
2021/09/06 11:53:30;;;;;;;;;;;;;;;-142.75;42.61;76052.63;4988906;28;19967;-75
2021/09/06 11:55:56;;;;;;;;;;;;;;;-142.75;42.17;76050.66;4991544;28;20062;-75
2021/09/06 11:58:25;;;;;;;;;;;;;;;-142.75;42.50;76109.69;4991898;28;20306;-75
2021/09/06 12:00:50;;;;;;;;;;;;;;;-142.75;45.38;76078.19;4989612;28;19917;-75
2021/09/06 12:03:25;;;;;;;;;;;;;;;-142.75;44.73;76048.69;4990005;28;20394;-75
2021/09/06 12:05:54;;;;;;;;;;;;;;;-142.75;42.18;76001.44;4989938;28;19947;-75
2021/09/06 12:08:19;;;;;;;;;;;;;;;-142.75;42.83;76038.84;4989848;28;19998;-75
2021/09/06 12:10:45;;;;;;;;;;;;;;;-142.75;40.44;76005.38;4994110;28;19964;-75
2021/09/06 12:13:18;;;;;;;;;;;;;;;-142.75;42.13;76064.44;4988610;28;19920;-75
2021/09/06 12:15:54;;;;;;;;;;;;;;;-142.75;41.48;76160.88;4988942;28;19921;-75
2021/09/06 12:18:19;;;;;;;;;;;;;;;-142.75;41.97;76229.75;5009536;28;19914;-75